sensor_id;sensor_type;location;lat;lon;timestamp;P1;durP1;ratioP1;P2;durP2;ratioP2
69789;SDS011;57064;52.046;4.800;2024-01-16T00:01:22;7.13;;;0.98;;
69789;SDS011;57064;52.046;4.800;2024-01-16T00:03:48;4.57;;;1.00;;
69789;SDS011;57064;52.046;4.800;2024-01-16T00:06:14;11.05;;;1.80;;
69789;SDS011;57064;52.046;4.800;2024-01-16T00:08:41;6.55;;;1.00;;
69789;SDS011;57064;52.046;4.800;2024-01-16T00:11:07;4.70;;;1.40;;
69789;SDS011;57064;52.046;4.800;2024-01-16T00:13:33;5.78;;;0.77;;
69789;SDS011;57064;52.046;4.800;2024-01-16T00:16:01;7.20;;;1.08;;
69789;SDS011;57064;52.046;4.800;2024-01-16T00:18:28;5.75;;;1.42;;
69789;SDS011;57064;52.046;4.800;2024-01-16T00:20:55;2.00;;;0.82;;
69789;SDS011;57064;52.046;4.800;2024-01-16T00:23:21;8.52;;;1.48;;
69789;SDS011;57064;52.046;4.800;2024-01-16T00:25:47;8.57;;;1.88;;
69789;SDS011;57064;52.046;4.800;2024-01-16T00:28:13;6.82;;;1.00;;
69789;SDS011;57064;52.046;4.800;2024-01-16T00:30:40;8.10;;;1.55;;
69789;SDS011;57064;52.046;4.800;2024-01-16T00:33:06;7.50;;;1.40;;
69789;SDS011;57064;52.046;4.800;2024-01-16T00:35:32;2.33;;;0.98;;
69789;SDS011;57064;52.046;4.800;2024-01-16T00:37:58;2.83;;;0.90;;
69789;SDS011;57064;52.046;4.800;2024-01-16T00:40:25;8.32;;;0.85;;
69789;SDS011;57064;52.046;4.800;2024-01-16T00:42:51;5.78;;;1.08;;
69789;SDS011;57064;52.046;4.800;2024-01-16T00:45:17;3.15;;;1.10;;
69789;SDS011;57064;52.046;4.800;2024-01-16T00:47:44;3.45;;;1.45;;
69789;SDS011;57064;52.046;4.800;2024-01-16T00:50:10;4.68;;;1.38;;
69789;SDS011;57064;52.046;4.800;2024-01-16T00:52:36;1.77;;;0.30;;
69789;SDS011;57064;52.046;4.800;2024-01-16T00:55:03;2.28;;;0.77;;
69789;SDS011;57064;52.046;4.800;2024-01-16T00:57:29;8.48;;;1.27;;
69789;SDS011;57064;52.046;4.800;2024-01-16T00:59:55;6.22;;;1.15;;
69789;SDS011;57064;52.046;4.800;2024-01-16T01:02:21;4.25;;;0.95;;
69789;SDS011;57064;52.046;4.800;2024-01-16T01:04:47;9.32;;;1.10;;
69789;SDS011;57064;52.046;4.800;2024-01-16T01:07:14;8.20;;;1.13;;
69789;SDS011;57064;52.046;4.800;2024-01-16T01:09:40;4.05;;;1.20;;
69789;SDS011;57064;52.046;4.800;2024-01-16T01:12:07;8.20;;;1.05;;
69789;SDS011;57064;52.046;4.800;2024-01-16T01:14:34;8.93;;;1.55;;
69789;SDS011;57064;52.046;4.800;2024-01-16T01:17:00;4.32;;;0.60;;
69789;SDS011;57064;52.046;4.800;2024-01-16T01:19:26;3.55;;;1.30;;
69789;SDS011;57064;52.046;4.800;2024-01-16T01:21:52;5.88;;;1.15;;
69789;SDS011;57064;52.046;4.800;2024-01-16T01:24:18;3.20;;;0.88;;
69789;SDS011;57064;52.046;4.800;2024-01-16T01:26:45;5.22;;;0.90;;
69789;SDS011;57064;52.046;4.800;2024-01-16T01:29:11;2.92;;;0.73;;
69789;SDS011;57064;52.046;4.800;2024-01-16T01:31:37;5.15;;;0.60;;
69789;SDS011;57064;52.046;4.800;2024-01-16T01:34:03;0.50;;;0.50;;
69789;SDS011;57064;52.046;4.800;2024-01-16T01:36:29;2.38;;;0.50;;
69789;SDS011;57064;52.046;4.800;2024-01-16T01:38:55;3.35;;;1.50;;
69789;SDS011;57064;52.046;4.800;2024-01-16T01:41:21;5.20;;;0.80;;
69789;SDS011;57064;52.046;4.800;2024-01-16T01:43:47;0.52;;;0.40;;
69789;SDS011;57064;52.046;4.800;2024-01-16T01:46:17;3.85;;;1.02;;
69789;SDS011;57064;52.046;4.800;2024-01-16T01:48:45;0.80;;;0.40;;
69789;SDS011;57064;52.046;4.800;2024-01-16T01:51:13;1.55;;;0.55;;
69789;SDS011;57064;52.046;4.800;2024-01-16T01:53:42;3.10;;;0.60;;
69789;SDS011;57064;52.046;4.800;2024-01-16T01:56:17;2.40;;;0.68;;
69789;SDS011;57064;52.046;4.800;2024-01-16T01:58:44;1.50;;;0.50;;
69789;SDS011;57064;52.046;4.800;2024-01-16T02:01:13;2.72;;;0.50;;
69789;SDS011;57064;52.046;4.800;2024-01-16T02:03:42;1.30;;;0.30;;
69789;SDS011;57064;52.046;4.800;2024-01-16T02:06:12;1.50;;;0.50;;
69789;SDS011;57064;52.046;4.800;2024-01-16T02:08:39;1.70;;;0.55;;
69789;SDS011;57064;52.046;4.800;2024-01-16T02:11:05;1.70;;;0.30;;
69789;SDS011;57064;52.046;4.800;2024-01-16T02:13:32;3.92;;;0.77;;
69789;SDS011;57064;52.046;4.800;2024-01-16T02:15:58;3.80;;;0.40;;
69789;SDS011;57064;52.046;4.800;2024-01-16T02:18:24;2.35;;;0.40;;
69789;SDS011;57064;52.046;4.800;2024-01-16T02:20:59;0.10;;;0.10;;
69789;SDS011;57064;52.046;4.800;2024-01-16T02:23:28;1.05;;;0.63;;
69789;SDS011;57064;52.046;4.800;2024-01-16T02:25:56;1.08;;;0.70;;
69789;SDS011;57064;52.046;4.800;2024-01-16T02:28:22;4.13;;;0.32;;
69789;SDS011;57064;52.046;4.800;2024-01-16T02:30:48;3.60;;;0.75;;
69789;SDS011;57064;52.046;4.800;2024-01-16T02:33:14;6.43;;;1.38;;
69789;SDS011;57064;52.046;4.800;2024-01-16T02:35:40;0.35;;;0.35;;
69789;SDS011;57064;52.046;4.800;2024-01-16T02:38:06;3.50;;;0.68;;
69789;SDS011;57064;52.046;4.800;2024-01-16T02:40:32;3.45;;;0.60;;
69789;SDS011;57064;52.046;4.800;2024-01-16T02:42:59;3.25;;;1.00;;
69789;SDS011;57064;52.046;4.800;2024-01-16T02:45:25;3.00;;;0.98;;
69789;SDS011;57064;52.046;4.800;2024-01-16T02:47:51;4.57;;;1.25;;
69789;SDS011;57064;52.046;4.800;2024-01-16T02:50:17;6.22;;;0.80;;
69789;SDS011;57064;52.046;4.800;2024-01-16T02:52:45;7.45;;;0.77;;
69789;SDS011;57064;52.046;4.800;2024-01-16T02:55:11;2.28;;;0.40;;
69789;SDS011;57064;52.046;4.800;2024-01-16T02:57:37;5.50;;;0.85;;
69789;SDS011;57064;52.046;4.800;2024-01-16T03:00:03;6.78;;;0.60;;
69789;SDS011;57064;52.046;4.800;2024-01-16T03:02:30;4.38;;;1.38;;
69789;SDS011;57064;52.046;4.800;2024-01-16T03:04:56;3.92;;;0.68;;
69789;SDS011;57064;52.046;4.800;2024-01-16T03:07:22;1.02;;;0.65;;
69789;SDS011;57064;52.046;4.800;2024-01-16T03:09:51;1.80;;;0.82;;
69789;SDS011;57064;52.046;4.800;2024-01-16T03:12:17;5.47;;;1.10;;
69789;SDS011;57064;52.046;4.800;2024-01-16T03:14:43;2.95;;;0.93;;
69789;SDS011;57064;52.046;4.800;2024-01-16T03:17:09;2.42;;;0.77;;
69789;SDS011;57064;52.046;4.800;2024-01-16T03:19:36;6.85;;;0.73;;
69789;SDS011;57064;52.046;4.800;2024-01-16T03:22:02;2.00;;;0.70;;
69789;SDS011;57064;52.046;4.800;2024-01-16T03:24:29;3.83;;;1.00;;
69789;SDS011;57064;52.046;4.800;2024-01-16T03:26:55;2.70;;;0.60;;
69789;SDS011;57064;52.046;4.800;2024-01-16T03:29:21;5.55;;;0.80;;
69789;SDS011;57064;52.046;4.800;2024-01-16T03:31:47;9.27;;;1.17;;
69789;SDS011;57064;52.046;4.800;2024-01-16T03:34:13;4.13;;;0.77;;
69789;SDS011;57064;52.046;4.800;2024-01-16T03:36:39;2.47;;;0.90;;
69789;SDS011;57064;52.046;4.800;2024-01-16T03:39:09;1.85;;;0.50;;
69789;SDS011;57064;52.046;4.800;2024-01-16T03:41:35;5.10;;;0.95;;
69789;SDS011;57064;52.046;4.800;2024-01-16T03:44:01;1.30;;;0.70;;
69789;SDS011;57064;52.046;4.800;2024-01-16T03:46:27;5.80;;;0.90;;
69789;SDS011;57064;52.046;4.800;2024-01-16T03:48:54;1.60;;;0.55;;
69789;SDS011;57064;52.046;4.800;2024-01-16T03:51:20;2.65;;;0.90;;
69789;SDS011;57064;52.046;4.800;2024-01-16T03:53:46;3.17;;;1.38;;
69789;SDS011;57064;52.046;4.800;2024-01-16T03:56:13;7.03;;;1.15;;
69789;SDS011;57064;52.046;4.800;2024-01-16T03:58:41;4.60;;;1.40;;
69789;SDS011;57064;52.046;4.800;2024-01-16T04:01:07;2.95;;;1.17;;
69789;SDS011;57064;52.046;4.800;2024-01-16T04:03:33;2.15;;;0.82;;
69789;SDS011;57064;52.046;4.800;2024-01-16T04:06:00;3.80;;;0.82;;
69789;SDS011;57064;52.046;4.800;2024-01-16T04:08:26;2.00;;;0.68;;
69789;SDS011;57064;52.046;4.800;2024-01-16T04:10:52;3.60;;;1.42;;
69789;SDS011;57064;52.046;4.800;2024-01-16T04:13:18;4.97;;;1.15;;
69789;SDS011;57064;52.046;4.800;2024-01-16T04:15:44;4.47;;;1.05;;
69789;SDS011;57064;52.046;4.800;2024-01-16T04:18:10;5.20;;;1.30;;
69789;SDS011;57064;52.046;4.800;2024-01-16T04:20:36;3.33;;;0.98;;
69789;SDS011;57064;52.046;4.800;2024-01-16T04:23:02;1.60;;;0.88;;
69789;SDS011;57064;52.046;4.800;2024-01-16T04:25:28;5.03;;;1.08;;
69789;SDS011;57064;52.046;4.800;2024-01-16T04:27:55;4.80;;;1.33;;
69789;SDS011;57064;52.046;4.800;2024-01-16T04:30:21;6.32;;;1.08;;
69789;SDS011;57064;52.046;4.800;2024-01-16T04:32:47;1.85;;;0.95;;
69789;SDS011;57064;52.046;4.800;2024-01-16T04:35:13;8.43;;;1.23;;
69789;SDS011;57064;52.046;4.800;2024-01-16T04:37:40;1.92;;;0.70;;
69789;SDS011;57064;52.046;4.800;2024-01-16T04:40:06;1.95;;;0.88;;
69789;SDS011;57064;52.046;4.800;2024-01-16T04:42:32;1.52;;;0.77;;
69789;SDS011;57064;52.046;4.800;2024-01-16T04:44:59;5.80;;;1.10;;
69789;SDS011;57064;52.046;4.800;2024-01-16T04:47:25;5.63;;;1.58;;
69789;SDS011;57064;52.046;4.800;2024-01-16T04:49:51;1.55;;;1.30;;
69789;SDS011;57064;52.046;4.800;2024-01-16T04:52:17;5.78;;;1.48;;
69789;SDS011;57064;52.046;4.800;2024-01-16T04:54:43;23.02;;;2.40;;
69789;SDS011;57064;52.046;4.800;2024-01-16T04:57:10;5.28;;;1.30;;
69789;SDS011;57064;52.046;4.800;2024-01-16T04:59:37;5.25;;;1.20;;
69789;SDS011;57064;52.046;4.800;2024-01-16T05:02:03;5.72;;;1.45;;
69789;SDS011;57064;52.046;4.800;2024-01-16T05:04:29;1.42;;;0.90;;
69789;SDS011;57064;52.046;4.800;2024-01-16T05:06:55;5.72;;;1.30;;
69789;SDS011;57064;52.046;4.800;2024-01-16T05:09:21;6.57;;;1.90;;
69789;SDS011;57064;52.046;4.800;2024-01-16T05:11:47;7.72;;;1.55;;
69789;SDS011;57064;52.046;4.800;2024-01-16T05:14:14;8.85;;;1.67;;
69789;SDS011;57064;52.046;4.800;2024-01-16T05:16:40;8.27;;;1.65;;
69789;SDS011;57064;52.046;4.800;2024-01-16T05:19:06;7.53;;;2.08;;
69789;SDS011;57064;52.046;4.800;2024-01-16T05:21:32;5.85;;;2.25;;
69789;SDS011;57064;52.046;4.800;2024-01-16T05:23:58;6.32;;;3.03;;
69789;SDS011;57064;52.046;4.800;2024-01-16T05:26:24;10.50;;;3.92;;
69789;SDS011;57064;52.046;4.800;2024-01-16T05:28:51;13.07;;;4.63;;
69789;SDS011;57064;52.046;4.800;2024-01-16T05:31:18;11.65;;;4.72;;
69789;SDS011;57064;52.046;4.800;2024-01-16T05:33:49;6.47;;;3.63;;
69789;SDS011;57064;52.046;4.800;2024-01-16T05:36:20;5.60;;;3.08;;
69789;SDS011;57064;52.046;4.800;2024-01-16T05:38:52;11.80;;;2.65;;
69789;SDS011;57064;52.046;4.800;2024-01-16T05:41:23;4.25;;;2.22;;
69789;SDS011;57064;52.046;4.800;2024-01-16T05:43:54;6.10;;;2.50;;
69789;SDS011;57064;52.046;4.800;2024-01-16T05:46:25;9.10;;;2.83;;
69789;SDS011;57064;52.046;4.800;2024-01-16T05:48:55;5.68;;;2.22;;
69789;SDS011;57064;52.046;4.800;2024-01-16T05:51:27;5.78;;;2.97;;
69789;SDS011;57064;52.046;4.800;2024-01-16T05:53:58;7.60;;;2.40;;
69789;SDS011;57064;52.046;4.800;2024-01-16T05:56:31;9.27;;;3.20;;
69789;SDS011;57064;52.046;4.800;2024-01-16T05:59:01;7.18;;;3.03;;
69789;SDS011;57064;52.046;4.800;2024-01-16T06:01:31;6.65;;;3.13;;
69789;SDS011;57064;52.046;4.800;2024-01-16T06:03:58;9.52;;;3.40;;
69789;SDS011;57064;52.046;4.800;2024-01-16T06:06:26;10.25;;;3.88;;
69789;SDS011;57064;52.046;4.800;2024-01-16T06:08:56;8.82;;;4.13;;
69789;SDS011;57064;52.046;4.800;2024-01-16T06:11:31;9.27;;;4.20;;
69789;SDS011;57064;52.046;4.800;2024-01-16T06:14:04;12.45;;;4.22;;
69789;SDS011;57064;52.046;4.800;2024-01-16T06:16:35;8.65;;;4.30;;
69789;SDS011;57064;52.046;4.800;2024-01-16T06:19:06;12.10;;;4.47;;
69789;SDS011;57064;52.046;4.800;2024-01-16T06:21:36;12.30;;;5.40;;
69789;SDS011;57064;52.046;4.800;2024-01-16T06:24:07;12.07;;;5.18;;
69789;SDS011;57064;52.046;4.800;2024-01-16T06:26:40;12.60;;;5.32;;
69789;SDS011;57064;52.046;4.800;2024-01-16T06:29:11;12.77;;;4.93;;
69789;SDS011;57064;52.046;4.800;2024-01-16T06:31:42;9.32;;;4.53;;
69789;SDS011;57064;52.046;4.800;2024-01-16T06:34:12;11.35;;;4.40;;
69789;SDS011;57064;52.046;4.800;2024-01-16T06:36:43;12.85;;;4.93;;
69789;SDS011;57064;52.046;4.800;2024-01-16T06:39:13;12.05;;;6.07;;
69789;SDS011;57064;52.046;4.800;2024-01-16T06:41:47;10.88;;;6.00;;
69789;SDS011;57064;52.046;4.800;2024-01-16T06:44:17;18.27;;;7.05;;
69789;SDS011;57064;52.046;4.800;2024-01-16T06:46:48;12.00;;;5.43;;
69789;SDS011;57064;52.046;4.800;2024-01-16T06:49:19;14.38;;;5.28;;
69789;SDS011;57064;52.046;4.800;2024-01-16T06:51:49;9.20;;;3.40;;
69789;SDS011;57064;52.046;4.800;2024-01-16T06:54:20;8.27;;;4.45;;
69789;SDS011;57064;52.046;4.800;2024-01-16T06:56:51;7.88;;;3.67;;
69789;SDS011;57064;52.046;4.800;2024-01-16T06:59:21;6.88;;;3.10;;
69789;SDS011;57064;52.046;4.800;2024-01-16T07:01:52;9.40;;;3.75;;
69789;SDS011;57064;52.046;4.800;2024-01-16T07:04:22;17.48;;;4.32;;
69789;SDS011;57064;52.046;4.800;2024-01-16T07:06:53;10.43;;;3.03;;
69789;SDS011;57064;52.046;4.800;2024-01-16T07:09:25;5.65;;;2.70;;
69789;SDS011;57064;52.046;4.800;2024-01-16T07:11:55;10.02;;;3.08;;
69789;SDS011;57064;52.046;4.800;2024-01-16T07:14:26;7.95;;;3.58;;
69789;SDS011;57064;52.046;4.800;2024-01-16T07:16:57;8.23;;;3.30;;
69789;SDS011;57064;52.046;4.800;2024-01-16T07:19:28;7.93;;;2.97;;
69789;SDS011;57064;52.046;4.800;2024-01-16T07:21:59;6.55;;;2.67;;
69789;SDS011;57064;52.046;4.800;2024-01-16T07:24:29;10.85;;;2.80;;
69789;SDS011;57064;52.046;4.800;2024-01-16T07:27:00;6.18;;;3.17;;
69789;SDS011;57064;52.046;4.800;2024-01-16T07:29:30;13.75;;;3.00;;
69789;SDS011;57064;52.046;4.800;2024-01-16T07:32:01;7.32;;;3.05;;
69789;SDS011;57064;52.046;4.800;2024-01-16T07:34:32;8.68;;;2.78;;
69789;SDS011;57064;52.046;4.800;2024-01-16T07:37:02;11.13;;;2.60;;
69789;SDS011;57064;52.046;4.800;2024-01-16T07:39:33;6.20;;;2.63;;
69789;SDS011;57064;52.046;4.800;2024-01-16T07:42:03;10.63;;;3.78;;
69789;SDS011;57064;52.046;4.800;2024-01-16T07:44:34;9.63;;;1.95;;
69789;SDS011;57064;52.046;4.800;2024-01-16T07:47:05;10.98;;;2.97;;
69789;SDS011;57064;52.046;4.800;2024-01-16T07:49:35;7.40;;;2.38;;
69789;SDS011;57064;52.046;4.800;2024-01-16T07:52:06;5.60;;;2.00;;
69789;SDS011;57064;52.046;4.800;2024-01-16T07:54:37;5.65;;;2.17;;
69789;SDS011;57064;52.046;4.800;2024-01-16T07:57:08;6.43;;;2.15;;
69789;SDS011;57064;52.046;4.800;2024-01-16T07:59:40;7.88;;;2.65;;
69789;SDS011;57064;52.046;4.800;2024-01-16T08:02:10;4.50;;;2.83;;
69789;SDS011;57064;52.046;4.800;2024-01-16T08:04:41;7.10;;;2.92;;
69789;SDS011;57064;52.046;4.800;2024-01-16T08:07:12;4.90;;;2.40;;
69789;SDS011;57064;52.046;4.800;2024-01-16T08:09:43;7.38;;;2.65;;
69789;SDS011;57064;52.046;4.800;2024-01-16T08:12:14;4.72;;;2.10;;
69789;SDS011;57064;52.046;4.800;2024-01-16T08:14:44;8.00;;;2.40;;
69789;SDS011;57064;52.046;4.800;2024-01-16T08:17:15;14.48;;;2.53;;
69789;SDS011;57064;52.046;4.800;2024-01-16T08:19:45;23.73;;;3.55;;
69789;SDS011;57064;52.046;4.800;2024-01-16T08:22:17;7.03;;;2.20;;
69789;SDS011;57064;52.046;4.800;2024-01-16T08:24:48;6.00;;;2.33;;
69789;SDS011;57064;52.046;4.800;2024-01-16T08:27:19;7.57;;;2.97;;
69789;SDS011;57064;52.046;4.800;2024-01-16T08:29:49;7.80;;;2.80;;
69789;SDS011;57064;52.046;4.800;2024-01-16T08:32:20;10.25;;;2.40;;
69789;SDS011;57064;52.046;4.800;2024-01-16T08:34:50;7.97;;;2.25;;
69789;SDS011;57064;52.046;4.800;2024-01-16T08:37:21;8.18;;;2.75;;
69789;SDS011;57064;52.046;4.800;2024-01-16T08:39:51;5.05;;;2.10;;
69789;SDS011;57064;52.046;4.800;2024-01-16T08:42:22;7.32;;;2.30;;
69789;SDS011;57064;52.046;4.800;2024-01-16T08:44:53;7.70;;;2.65;;
69789;SDS011;57064;52.046;4.800;2024-01-16T08:47:21;5.45;;;2.10;;
69789;SDS011;57064;52.046;4.800;2024-01-16T08:49:50;4.65;;;2.28;;
69789;SDS011;57064;52.046;4.800;2024-01-16T08:52:19;3.45;;;1.85;;
69789;SDS011;57064;52.046;4.800;2024-01-16T08:54:48;5.00;;;2.40;;
69789;SDS011;57064;52.046;4.800;2024-01-16T08:57:15;8.25;;;2.88;;
69789;SDS011;57064;52.046;4.800;2024-01-16T08:59:41;11.30;;;2.17;;
69789;SDS011;57064;52.046;4.800;2024-01-16T09:02:10;7.45;;;2.25;;
69789;SDS011;57064;52.046;4.800;2024-01-16T09:04:37;8.70;;;2.13;;
69789;SDS011;57064;52.046;4.800;2024-01-16T09:07:03;7.22;;;2.50;;
69789;SDS011;57064;52.046;4.800;2024-01-16T09:09:29;3.72;;;1.98;;
69789;SDS011;57064;52.046;4.800;2024-01-16T09:11:55;6.82;;;1.58;;
69789;SDS011;57064;52.046;4.800;2024-01-16T09:14:24;3.17;;;1.92;;
69789;SDS011;57064;52.046;4.800;2024-01-16T09:16:50;8.35;;;2.08;;
69789;SDS011;57064;52.046;4.800;2024-01-16T09:19:18;8.98;;;1.58;;
69789;SDS011;57064;52.046;4.800;2024-01-16T09:21:44;8.68;;;1.67;;
69789;SDS011;57064;52.046;4.800;2024-01-16T09:24:10;6.32;;;2.35;;
69789;SDS011;57064;52.046;4.800;2024-01-16T09:26:41;6.75;;;1.50;;
69789;SDS011;57064;52.046;4.800;2024-01-16T09:29:08;8.07;;;1.70;;
69789;SDS011;57064;52.046;4.800;2024-01-16T09:31:35;13.23;;;2.78;;
69789;SDS011;57064;52.046;4.800;2024-01-16T09:34:02;8.48;;;2.20;;
69789;SDS011;57064;52.046;4.800;2024-01-16T09:36:29;4.55;;;1.80;;
69789;SDS011;57064;52.046;4.800;2024-01-16T09:38:55;7.35;;;1.85;;
69789;SDS011;57064;52.046;4.800;2024-01-16T09:41:21;10.05;;;2.05;;
69789;SDS011;57064;52.046;4.800;2024-01-16T09:43:48;8.65;;;2.92;;
69789;SDS011;57064;52.046;4.800;2024-01-16T09:46:14;6.55;;;2.88;;
69789;SDS011;57064;52.046;4.800;2024-01-16T09:48:44;6.20;;;1.90;;
69789;SDS011;57064;52.046;4.800;2024-01-16T09:51:11;5.55;;;2.20;;
69789;SDS011;57064;52.046;4.800;2024-01-16T09:53:40;7.10;;;2.60;;
69789;SDS011;57064;52.046;4.800;2024-01-16T09:56:07;6.03;;;1.95;;
69789;SDS011;57064;52.046;4.800;2024-01-16T09:58:42;4.47;;;1.67;;
69789;SDS011;57064;52.046;4.800;2024-01-16T10:01:10;3.72;;;1.60;;
69789;SDS011;57064;52.046;4.800;2024-01-16T10:03:38;6.65;;;1.90;;
69789;SDS011;57064;52.046;4.800;2024-01-16T10:06:05;5.93;;;1.75;;
69789;SDS011;57064;52.046;4.800;2024-01-16T10:08:32;5.57;;;2.40;;
69789;SDS011;57064;52.046;4.800;2024-01-16T10:10:58;2.45;;;1.35;;
69789;SDS011;57064;52.046;4.800;2024-01-16T10:13:25;5.00;;;2.05;;
69789;SDS011;57064;52.046;4.800;2024-01-16T10:15:52;5.90;;;2.05;;
69789;SDS011;57064;52.046;4.800;2024-01-16T10:18:23;5.13;;;2.35;;
69789;SDS011;57064;52.046;4.800;2024-01-16T10:20:51;4.70;;;1.75;;
69789;SDS011;57064;52.046;4.800;2024-01-16T10:23:28;14.98;;;2.22;;
69789;SDS011;57064;52.046;4.800;2024-01-16T10:26:11;7.93;;;2.05;;
69789;SDS011;57064;52.046;4.800;2024-01-16T10:28:39;4.65;;;1.50;;
69789;SDS011;57064;52.046;4.800;2024-01-16T10:31:08;4.40;;;1.80;;
69789;SDS011;57064;52.046;4.800;2024-01-16T10:36:11;5.93;;;1.98;;
69789;SDS011;57064;52.046;4.800;2024-01-16T10:38:40;4.25;;;1.90;;
69789;SDS011;57064;52.046;4.800;2024-01-16T10:41:09;5.50;;;2.30;;
69789;SDS011;57064;52.046;4.800;2024-01-16T10:43:36;7.22;;;1.88;;
69789;SDS011;57064;52.046;4.800;2024-01-16T10:46:13;5.60;;;1.83;;
69789;SDS011;57064;52.046;4.800;2024-01-16T10:48:44;3.17;;;1.52;;
69789;SDS011;57064;52.046;4.800;2024-01-16T10:51:24;4.07;;;2.10;;
69789;SDS011;57064;52.046;4.800;2024-01-16T10:53:58;3.58;;;2.10;;
69789;SDS011;57064;52.046;4.800;2024-01-16T10:56:31;8.40;;;2.35;;
69789;SDS011;57064;52.046;4.800;2024-01-16T11:01:33;6.53;;;1.85;;
69789;SDS011;57064;52.046;4.800;2024-01-16T11:04:00;5.28;;;1.83;;
69789;SDS011;57064;52.046;4.800;2024-01-16T11:06:27;6.25;;;1.58;;
69789;SDS011;57064;52.046;4.800;2024-01-16T11:08:54;4.35;;;1.70;;
69789;SDS011;57064;52.046;4.800;2024-01-16T11:11:21;3.95;;;1.73;;
69789;SDS011;57064;52.046;4.800;2024-01-16T11:13:50;5.68;;;1.95;;
69789;SDS011;57064;52.046;4.800;2024-01-16T11:16:19;2.85;;;1.55;;
69789;SDS011;57064;52.046;4.800;2024-01-16T11:18:48;4.93;;;1.80;;
69789;SDS011;57064;52.046;4.800;2024-01-16T11:21:15;2.70;;;1.55;;
69789;SDS011;57064;52.046;4.800;2024-01-16T11:23:43;6.28;;;2.30;;
69789;SDS011;57064;52.046;4.800;2024-01-16T11:26:29;4.47;;;1.70;;
69789;SDS011;57064;52.046;4.800;2024-01-16T11:31:55;6.85;;;1.85;;
69789;SDS011;57064;52.046;4.800;2024-01-16T11:37:11;3.53;;;0.73;;
69789;SDS011;57064;52.046;4.800;2024-01-16T11:39:39;1.17;;;0.55;;
69789;SDS011;57064;52.046;4.800;2024-01-16T11:42:09;3.50;;;1.27;;
69789;SDS011;57064;52.046;4.800;2024-01-16T11:44:50;2.25;;;1.05;;
69789;SDS011;57064;52.046;4.800;2024-01-16T11:47:17;2.67;;;0.70;;
69789;SDS011;57064;52.046;4.800;2024-01-16T11:50:09;1.65;;;0.52;;
69789;SDS011;57064;52.046;4.800;2024-01-16T11:52:42;5.05;;;2.60;;
69789;SDS011;57064;52.046;4.800;2024-01-16T11:58:10;2.60;;;0.85;;
69789;SDS011;57064;52.046;4.800;2024-01-16T12:00:59;1.60;;;0.50;;
69789;SDS011;57064;52.046;4.800;2024-01-16T12:03:29;4.35;;;0.68;;
69789;SDS011;57064;52.046;4.800;2024-01-16T12:05:55;2.92;;;0.60;;
69789;SDS011;57064;52.046;4.800;2024-01-16T12:08:22;5.43;;;1.38;;
69789;SDS011;57064;52.046;4.800;2024-01-16T12:10:49;3.70;;;0.50;;
69789;SDS011;57064;52.046;4.800;2024-01-16T12:13:15;3.25;;;0.70;;
69789;SDS011;57064;52.046;4.800;2024-01-16T12:15:43;2.42;;;0.43;;
69789;SDS011;57064;52.046;4.800;2024-01-16T12:18:09;1.08;;;0.80;;
69789;SDS011;57064;52.046;4.800;2024-01-16T12:20:42;0.68;;;0.30;;
69789;SDS011;57064;52.046;4.800;2024-01-16T12:23:09;2.38;;;0.70;;
69789;SDS011;57064;52.046;4.800;2024-01-16T12:25:36;2.83;;;0.68;;
69789;SDS011;57064;52.046;4.800;2024-01-16T12:28:06;3.22;;;0.40;;
69789;SDS011;57064;52.046;4.800;2024-01-16T12:30:36;5.95;;;0.70;;
69789;SDS011;57064;52.046;4.800;2024-01-16T12:35:33;2.15;;;0.40;;
69789;SDS011;57064;52.046;4.800;2024-01-16T12:38:04;6.20;;;0.70;;
69789;SDS011;57064;52.046;4.800;2024-01-16T12:40:34;4.63;;;0.93;;
69789;SDS011;57064;52.046;4.800;2024-01-16T12:43:07;3.53;;;0.55;;
69789;SDS011;57064;52.046;4.800;2024-01-16T12:45:37;0.52;;;0.17;;
69789;SDS011;57064;52.046;4.800;2024-01-16T12:48:03;2.38;;;0.70;;
69789;SDS011;57064;52.046;4.800;2024-01-16T12:50:30;3.88;;;0.60;;
69789;SDS011;57064;52.046;4.800;2024-01-16T12:53:10;0.95;;;0.38;;
69789;SDS011;57064;52.046;4.800;2024-01-16T12:55:40;2.42;;;0.50;;
69789;SDS011;57064;52.046;4.800;2024-01-16T12:58:12;1.80;;;0.50;;
69789;SDS011;57064;52.046;4.800;2024-01-16T13:00:54;11.75;;;0.80;;
69789;SDS011;57064;52.046;4.800;2024-01-16T13:03:25;5.97;;;0.40;;
69789;SDS011;57064;52.046;4.800;2024-01-16T13:05:55;1.63;;;0.40;;
69789;SDS011;57064;52.046;4.800;2024-01-16T13:08:25;0.70;;;0.40;;
69789;SDS011;57064;52.046;4.800;2024-01-16T13:11:04;4.38;;;0.63;;
69789;SDS011;57064;52.046;4.800;2024-01-16T13:13:32;3.55;;;0.70;;
69789;SDS011;57064;52.046;4.800;2024-01-16T13:15:59;0.65;;;0.32;;
69789;SDS011;57064;52.046;4.800;2024-01-16T13:18:26;0.85;;;0.47;;
69789;SDS011;57064;52.046;4.800;2024-01-16T13:20:54;3.30;;;0.50;;
69789;SDS011;57064;52.046;4.800;2024-01-16T13:23:21;5.15;;;0.70;;
69789;SDS011;57064;52.046;4.800;2024-01-16T13:25:52;4.70;;;0.57;;
69789;SDS011;57064;52.046;4.800;2024-01-16T13:28:24;1.33;;;0.47;;
69789;SDS011;57064;52.046;4.800;2024-01-16T13:30:51;1.85;;;0.85;;
69789;SDS011;57064;52.046;4.800;2024-01-16T13:33:17;5.03;;;0.63;;
69789;SDS011;57064;52.046;4.800;2024-01-16T13:35:44;2.92;;;0.55;;
69789;SDS011;57064;52.046;4.800;2024-01-16T13:38:15;2.03;;;0.50;;
69789;SDS011;57064;52.046;4.800;2024-01-16T13:40:41;0.68;;;0.30;;
69789;SDS011;57064;52.046;4.800;2024-01-16T13:43:08;0.77;;;0.20;;
69789;SDS011;57064;52.046;4.800;2024-01-16T13:45:34;1.67;;;0.60;;
69789;SDS011;57064;52.046;4.800;2024-01-16T13:48:01;3.15;;;1.00;;
69789;SDS011;57064;52.046;4.800;2024-01-16T13:50:27;1.75;;;0.50;;
69789;SDS011;57064;52.046;4.800;2024-01-16T13:52:54;1.55;;;0.30;;
69789;SDS011;57064;52.046;4.800;2024-01-16T13:55:21;0.35;;;0.20;;
69789;SDS011;57064;52.046;4.800;2024-01-16T13:57:47;1.98;;;0.70;;
69789;SDS011;57064;52.046;4.800;2024-01-16T14:00:13;4.65;;;0.85;;
69789;SDS011;57064;52.046;4.800;2024-01-16T14:02:44;0.93;;;0.40;;
69789;SDS011;57064;52.046;4.800;2024-01-16T14:05:11;0.30;;;0.25;;
69789;SDS011;57064;52.046;4.800;2024-01-16T14:07:43;1.80;;;0.60;;
69789;SDS011;57064;52.046;4.800;2024-01-16T14:10:14;2.42;;;0.40;;
69789;SDS011;57064;52.046;4.800;2024-01-16T14:12:40;2.58;;;0.40;;
69789;SDS011;57064;52.046;4.800;2024-01-16T14:15:08;5.13;;;0.70;;
69789;SDS011;57064;52.046;4.800;2024-01-16T14:17:44;1.92;;;0.43;;
69789;SDS011;57064;52.046;4.800;2024-01-16T14:20:11;3.75;;;0.85;;
69789;SDS011;57064;52.046;4.800;2024-01-16T14:22:38;5.00;;;0.82;;
69789;SDS011;57064;52.046;4.800;2024-01-16T14:25:08;2.63;;;1.05;;
69789;SDS011;57064;52.046;4.800;2024-01-16T14:27:42;5.82;;;0.85;;
69789;SDS011;57064;52.046;4.800;2024-01-16T14:30:12;4.72;;;0.95;;
69789;SDS011;57064;52.046;4.800;2024-01-16T14:32:40;3.30;;;0.50;;
69789;SDS011;57064;52.046;4.800;2024-01-16T14:35:09;3.80;;;0.60;;
69789;SDS011;57064;52.046;4.800;2024-01-16T14:37:36;0.93;;;0.57;;
69789;SDS011;57064;52.046;4.800;2024-01-16T14:40:03;2.70;;;0.90;;
69789;SDS011;57064;52.046;4.800;2024-01-16T14:42:45;2.72;;;0.70;;
69789;SDS011;57064;52.046;4.800;2024-01-16T14:45:16;6.30;;;0.45;;
69789;SDS011;57064;52.046;4.800;2024-01-16T14:47:43;1.42;;;0.40;;
69789;SDS011;57064;52.046;4.800;2024-01-16T14:50:11;2.85;;;0.47;;
69789;SDS011;57064;52.046;4.800;2024-01-16T14:52:41;2.05;;;0.55;;
69789;SDS011;57064;52.046;4.800;2024-01-16T14:55:09;3.90;;;0.70;;
69789;SDS011;57064;52.046;4.800;2024-01-16T14:57:38;2.13;;;0.80;;
69789;SDS011;57064;52.046;4.800;2024-01-16T15:00:08;2.00;;;0.57;;
69789;SDS011;57064;52.046;4.800;2024-01-16T15:02:41;2.65;;;0.70;;
69789;SDS011;57064;52.046;4.800;2024-01-16T15:05:09;2.55;;;0.68;;
69789;SDS011;57064;52.046;4.800;2024-01-16T15:07:37;3.35;;;0.60;;
69789;SDS011;57064;52.046;4.800;2024-01-16T15:10:05;1.90;;;0.73;;